Main page
METAR-TAF:

METAR-TAF

Airports :

De Aar, South Africa

latitude: 30-40-29S, longitude: 23-59-57E, elevation: 1286 m

Current weather observation

The report was made 9 hours and 44 minutes ago, at 07:26 UTC
Wind 2 kt from the Southeast
Temperature 10°C
Humidity 46%
Pressure 1034 hPa
Visibility 10 km or more
no clouds below 1500 m and no cumulonimbus

METAR: FADY 190726Z 13002KT CAVOK 10/M01 Q1034

Time: 19:10 (17:10 UTC)


TAF: missing

Weather observations and forecasts of more than 4000 airports (METAR and TAF reports).

The available stations are represented by yellow and red dots on the map.

Hover mouse over dot to see the name of the station.

Then click to see weather observations and forecasts.

To change the map : click on the green buttons with a black cross to zoom in, on the green button with a dash to zoom out, or on the green arrows for adjacent maps.


METAR-TAF: